sensor_id;sensor_type;location;lat;lon;timestamp;P1;durP1;ratioP1;P2;durP2;ratioP2
7336;SDS011;54510;42.016;23.098;2023-06-24T00:01:11;13.68;;;10.77;;
7336;SDS011;54510;42.016;23.098;2023-06-24T00:03:38;14.90;;;10.65;;
7336;SDS011;54510;42.016;23.098;2023-06-24T00:06:03;13.60;;;9.82;;
7336;SDS011;54510;42.016;23.098;2023-06-24T00:08:28;15.63;;;10.35;;
7336;SDS011;54510;42.016;23.098;2023-06-24T00:10:59;15.27;;;11.40;;
7336;SDS011;54510;42.016;23.098;2023-06-24T00:13:28;13.55;;;10.93;;
7336;SDS011;54510;42.016;23.098;2023-06-24T00:15:54;12.05;;;10.45;;
7336;SDS011;54510;42.016;23.098;2023-06-24T00:18:19;15.45;;;10.55;;
7336;SDS011;54510;42.016;23.098;2023-06-24T00:20:45;11.18;;;9.80;;
7336;SDS011;54510;42.016;23.098;2023-06-24T00:23:11;15.40;;;11.27;;
7336;SDS011;54510;42.016;23.098;2023-06-24T00:25:42;13.43;;;10.95;;
7336;SDS011;54510;42.016;23.098;2023-06-24T00:28:07;18.00;;;10.60;;
7336;SDS011;54510;42.016;23.098;2023-06-24T00:30:33;13.95;;;11.55;;
7336;SDS011;54510;42.016;23.098;2023-06-24T00:32:58;14.65;;;11.20;;
7336;SDS011;54510;42.016;23.098;2023-06-24T00:35:23;16.65;;;11.10;;
7336;SDS011;54510;42.016;23.098;2023-06-24T00:37:49;15.25;;;11.13;;
7336;SDS011;54510;42.016;23.098;2023-06-24T00:40:14;14.68;;;10.73;;
7336;SDS011;54510;42.016;23.098;2023-06-24T00:42:41;18.15;;;11.50;;
7336;SDS011;54510;42.016;23.098;2023-06-24T00:45:08;13.15;;;10.63;;
7336;SDS011;54510;42.016;23.098;2023-06-24T00:47:35;12.27;;;10.70;;
7336;SDS011;54510;42.016;23.098;2023-06-24T00:50:01;18.15;;;12.45;;
7336;SDS011;54510;42.016;23.098;2023-06-24T00:52:26;14.93;;;10.77;;
7336;SDS011;54510;42.016;23.098;2023-06-24T00:54:51;17.95;;;12.25;;
7336;SDS011;54510;42.016;23.098;2023-06-24T00:57:17;13.77;;;11.32;;
7336;SDS011;54510;42.016;23.098;2023-06-24T00:59:49;12.40;;;11.10;;
7336;SDS011;54510;42.016;23.098;2023-06-24T01:02:18;16.58;;;11.13;;
7336;SDS011;54510;42.016;23.098;2023-06-24T01:04:46;14.27;;;10.82;;
7336;SDS011;54510;42.016;23.098;2023-06-24T01:07:13;16.48;;;11.02;;
7336;SDS011;54510;42.016;23.098;2023-06-24T01:09:40;14.60;;;10.82;;
7336;SDS011;54510;42.016;23.098;2023-06-24T01:12:06;13.57;;;10.95;;
7336;SDS011;54510;42.016;23.098;2023-06-24T01:14:33;12.48;;;10.13;;
7336;SDS011;54510;42.016;23.098;2023-06-24T01:17:09;16.05;;;11.27;;
7336;SDS011;54510;42.016;23.098;2023-06-24T01:22:19;13.05;;;10.32;;
7336;SDS011;54510;42.016;23.098;2023-06-24T01:28:17;14.05;;;10.13;;
7336;SDS011;54510;42.016;23.098;2023-06-24T01:33:22;16.45;;;10.35;;
7336;SDS011;54510;42.016;23.098;2023-06-24T01:35:53;13.95;;;11.35;;
7336;SDS011;54510;42.016;23.098;2023-06-24T01:38:24;12.70;;;11.02;;
7336;SDS011;54510;42.016;23.098;2023-06-24T01:40:57;13.90;;;10.32;;
7336;SDS011;54510;42.016;23.098;2023-06-24T01:43:25;14.40;;;11.38;;
7336;SDS011;54510;42.016;23.098;2023-06-24T01:45:52;12.43;;;10.07;;
7336;SDS011;54510;42.016;23.098;2023-06-24T01:48:22;12.82;;;10.65;;
7336;SDS011;54510;42.016;23.098;2023-06-24T01:51:00;14.45;;;9.60;;
7336;SDS011;54510;42.016;23.098;2023-06-24T01:53:28;16.88;;;10.85;;
7336;SDS011;54510;42.016;23.098;2023-06-24T01:55:58;13.52;;;10.00;;
7336;SDS011;54510;42.016;23.098;2023-06-24T01:58:26;16.90;;;11.63;;
7336;SDS011;54510;42.016;23.098;2023-06-24T02:00:53;15.48;;;10.98;;
7336;SDS011;54510;42.016;23.098;2023-06-24T02:03:20;17.67;;;11.35;;
7336;SDS011;54510;42.016;23.098;2023-06-24T02:05:46;13.15;;;11.73;;
7336;SDS011;54510;42.016;23.098;2023-06-24T02:08:13;14.90;;;11.80;;
7336;SDS011;54510;42.016;23.098;2023-06-24T02:10:40;13.98;;;11.23;;
7336;SDS011;54510;42.016;23.098;2023-06-24T02:13:07;14.73;;;11.70;;
7336;SDS011;54510;42.016;23.098;2023-06-24T02:15:35;13.73;;;11.75;;
7336;SDS011;54510;42.016;23.098;2023-06-24T02:18:03;14.73;;;11.77;;
7336;SDS011;54510;42.016;23.098;2023-06-24T02:20:31;17.33;;;11.55;;
7336;SDS011;54510;42.016;23.098;2023-06-24T02:22:56;17.30;;;11.77;;
7336;SDS011;54510;42.016;23.098;2023-06-24T02:25:24;16.40;;;11.80;;
7336;SDS011;54510;42.016;23.098;2023-06-24T02:27:51;15.88;;;12.20;;
7336;SDS011;54510;42.016;23.098;2023-06-24T02:30:18;12.07;;;10.77;;
7336;SDS011;54510;42.016;23.098;2023-06-24T02:32:45;15.98;;;11.57;;
7336;SDS011;54510;42.016;23.098;2023-06-24T02:35:11;19.38;;;11.88;;
7336;SDS011;54510;42.016;23.098;2023-06-24T02:37:37;15.95;;;11.82;;
7336;SDS011;54510;42.016;23.098;2023-06-24T02:40:02;14.15;;;11.35;;
7336;SDS011;54510;42.016;23.098;2023-06-24T02:42:30;16.00;;;12.07;;
7336;SDS011;54510;42.016;23.098;2023-06-24T02:44:56;13.57;;;11.25;;
7336;SDS011;54510;42.016;23.098;2023-06-24T02:47:21;14.85;;;11.68;;
7336;SDS011;54510;42.016;23.098;2023-06-24T02:49:48;13.70;;;12.07;;
7336;SDS011;54510;42.016;23.098;2023-06-24T02:52:16;13.60;;;11.60;;
7336;SDS011;54510;42.016;23.098;2023-06-24T02:54:42;16.50;;;12.43;;
7336;SDS011;54510;42.016;23.098;2023-06-24T02:57:08;17.27;;;11.35;;
7336;SDS011;54510;42.016;23.098;2023-06-24T02:59:34;16.23;;;11.27;;
7336;SDS011;54510;42.016;23.098;2023-06-24T03:02:00;13.70;;;11.10;;
7336;SDS011;54510;42.016;23.098;2023-06-24T03:04:28;15.18;;;11.20;;
7336;SDS011;54510;42.016;23.098;2023-06-24T03:06:54;12.85;;;10.23;;
7336;SDS011;54510;42.016;23.098;2023-06-24T03:09:21;13.38;;;10.77;;
7336;SDS011;54510;42.016;23.098;2023-06-24T03:11:48;17.27;;;12.27;;
7336;SDS011;54510;42.016;23.098;2023-06-24T03:14:13;14.55;;;11.45;;
7336;SDS011;54510;42.016;23.098;2023-06-24T03:16:38;14.65;;;11.98;;
7336;SDS011;54510;42.016;23.098;2023-06-24T03:19:04;13.45;;;11.20;;
7336;SDS011;54510;42.016;23.098;2023-06-24T03:21:30;15.80;;;11.95;;
7336;SDS011;54510;42.016;23.098;2023-06-24T03:23:56;15.38;;;11.90;;
7336;SDS011;54510;42.016;23.098;2023-06-24T03:26:24;14.88;;;12.10;;
7336;SDS011;54510;42.016;23.098;2023-06-24T03:28:50;17.15;;;12.35;;
7336;SDS011;54510;42.016;23.098;2023-06-24T03:31:15;20.42;;;11.98;;
7336;SDS011;54510;42.016;23.098;2023-06-24T03:33:41;20.08;;;12.13;;
7336;SDS011;54510;42.016;23.098;2023-06-24T03:36:10;16.77;;;12.55;;
7336;SDS011;54510;42.016;23.098;2023-06-24T03:38:36;17.95;;;12.13;;
7336;SDS011;54510;42.016;23.098;2023-06-24T03:41:02;16.20;;;12.30;;
7336;SDS011;54510;42.016;23.098;2023-06-24T03:43:27;15.75;;;12.02;;
7336;SDS011;54510;42.016;23.098;2023-06-24T03:45:52;16.05;;;12.43;;
7336;SDS011;54510;42.016;23.098;2023-06-24T03:48:18;23.00;;;15.73;;
7336;SDS011;54510;42.016;23.098;2023-06-24T03:50:43;19.58;;;12.52;;
7336;SDS011;54510;42.016;23.098;2023-06-24T03:53:09;20.50;;;12.55;;
7336;SDS011;54510;42.016;23.098;2023-06-24T03:55:34;18.35;;;12.88;;
7336;SDS011;54510;42.016;23.098;2023-06-24T03:57:59;18.13;;;13.13;;
7336;SDS011;54510;42.016;23.098;2023-06-24T04:00:25;14.43;;;11.85;;
7336;SDS011;54510;42.016;23.098;2023-06-24T04:02:50;15.30;;;12.65;;
7336;SDS011;54510;42.016;23.098;2023-06-24T04:05:18;16.05;;;13.05;;
7336;SDS011;54510;42.016;23.098;2023-06-24T04:07:43;16.88;;;12.57;;
7336;SDS011;54510;42.016;23.098;2023-06-24T04:10:11;20.55;;;12.02;;
7336;SDS011;54510;42.016;23.098;2023-06-24T04:12:37;18.27;;;11.48;;
7336;SDS011;54510;42.016;23.098;2023-06-24T04:15:03;14.88;;;12.32;;
7336;SDS011;54510;42.016;23.098;2023-06-24T04:17:29;18.17;;;12.35;;
7336;SDS011;54510;42.016;23.098;2023-06-24T04:19:55;16.27;;;12.15;;
7336;SDS011;54510;42.016;23.098;2023-06-24T04:22:21;17.30;;;11.65;;
7336;SDS011;54510;42.016;23.098;2023-06-24T04:24:46;16.05;;;12.52;;
7336;SDS011;54510;42.016;23.098;2023-06-24T04:27:11;14.90;;;11.60;;
7336;SDS011;54510;42.016;23.098;2023-06-24T04:29:37;15.63;;;11.57;;
7336;SDS011;54510;42.016;23.098;2023-06-24T04:32:02;15.50;;;11.98;;
7336;SDS011;54510;42.016;23.098;2023-06-24T04:34:28;14.20;;;11.40;;
7336;SDS011;54510;42.016;23.098;2023-06-24T04:36:53;16.70;;;12.85;;
7336;SDS011;54510;42.016;23.098;2023-06-24T04:39:19;17.20;;;13.05;;
7336;SDS011;54510;42.016;23.098;2023-06-24T04:41:44;15.02;;;12.82;;
7336;SDS011;54510;42.016;23.098;2023-06-24T04:44:11;17.00;;;12.65;;
7336;SDS011;54510;42.016;23.098;2023-06-24T04:46:36;16.77;;;13.07;;
7336;SDS011;54510;42.016;23.098;2023-06-24T04:49:02;17.35;;;11.90;;
7336;SDS011;54510;42.016;23.098;2023-06-24T04:51:27;17.17;;;12.35;;
7336;SDS011;54510;42.016;23.098;2023-06-24T04:53:53;16.10;;;12.32;;
7336;SDS011;54510;42.016;23.098;2023-06-24T04:56:18;21.90;;;13.13;;
7336;SDS011;54510;42.016;23.098;2023-06-24T04:58:44;15.38;;;13.23;;
7336;SDS011;54510;42.016;23.098;2023-06-24T05:01:09;15.90;;;12.52;;
7336;SDS011;54510;42.016;23.098;2023-06-24T05:03:35;15.27;;;12.15;;
7336;SDS011;54510;42.016;23.098;2023-06-24T05:06:00;15.35;;;12.80;;
7336;SDS011;54510;42.016;23.098;2023-06-24T05:08:26;17.73;;;12.82;;
7336;SDS011;54510;42.016;23.098;2023-06-24T05:10:51;15.73;;;11.93;;
7336;SDS011;54510;42.016;23.098;2023-06-24T05:13:16;15.95;;;12.20;;
7336;SDS011;54510;42.016;23.098;2023-06-24T05:15:42;17.23;;;11.48;;
7336;SDS011;54510;42.016;23.098;2023-06-24T05:18:07;14.73;;;11.65;;
7336;SDS011;54510;42.016;23.098;2023-06-24T05:20:32;14.45;;;10.85;;
7336;SDS011;54510;42.016;23.098;2023-06-24T05:22:58;14.07;;;11.52;;
7336;SDS011;54510;42.016;23.098;2023-06-24T05:25:23;14.55;;;12.18;;
7336;SDS011;54510;42.016;23.098;2023-06-24T05:27:49;15.45;;;11.48;;
7336;SDS011;54510;42.016;23.098;2023-06-24T05:30:14;15.50;;;11.88;;
7336;SDS011;54510;42.016;23.098;2023-06-24T05:32:40;13.93;;;11.25;;
7336;SDS011;54510;42.016;23.098;2023-06-24T05:35:05;16.15;;;11.93;;
7336;SDS011;54510;42.016;23.098;2023-06-24T05:37:31;13.55;;;12.13;;
7336;SDS011;54510;42.016;23.098;2023-06-24T05:39:57;14.15;;;11.15;;
7336;SDS011;54510;42.016;23.098;2023-06-24T05:42:26;15.02;;;11.43;;
7336;SDS011;54510;42.016;23.098;2023-06-24T05:44:51;15.30;;;11.68;;
7336;SDS011;54510;42.016;23.098;2023-06-24T05:47:16;13.68;;;12.27;;
7336;SDS011;54510;42.016;23.098;2023-06-24T05:49:42;18.98;;;12.50;;
7336;SDS011;54510;42.016;23.098;2023-06-24T05:52:07;15.35;;;11.95;;
7336;SDS011;54510;42.016;23.098;2023-06-24T05:54:33;15.15;;;12.27;;
7336;SDS011;54510;42.016;23.098;2023-06-24T05:56:58;19.83;;;12.73;;
7336;SDS011;54510;42.016;23.098;2023-06-24T05:59:24;16.95;;;12.63;;
7336;SDS011;54510;42.016;23.098;2023-06-24T06:01:49;19.80;;;12.57;;
7336;SDS011;54510;42.016;23.098;2023-06-24T06:04:14;13.57;;;11.75;;
7336;SDS011;54510;42.016;23.098;2023-06-24T06:06:40;16.83;;;12.93;;
7336;SDS011;54510;42.016;23.098;2023-06-24T06:09:05;13.68;;;11.10;;
7336;SDS011;54510;42.016;23.098;2023-06-24T06:11:31;14.38;;;12.88;;
7336;SDS011;54510;42.016;23.098;2023-06-24T06:13:57;21.45;;;15.23;;
7336;SDS011;54510;42.016;23.098;2023-06-24T06:16:22;18.23;;;14.25;;
7336;SDS011;54510;42.016;23.098;2023-06-24T06:18:48;17.30;;;13.55;;
7336;SDS011;54510;42.016;23.098;2023-06-24T06:21:14;19.67;;;12.60;;
7336;SDS011;54510;42.016;23.098;2023-06-24T06:23:39;16.10;;;12.80;;
7336;SDS011;54510;42.016;23.098;2023-06-24T06:26:05;19.80;;;14.27;;
7336;SDS011;54510;42.016;23.098;2023-06-24T06:28:30;32.00;;;23.13;;
7336;SDS011;54510;42.016;23.098;2023-06-24T06:30:55;20.65;;;14.70;;
7336;SDS011;54510;42.016;23.098;2023-06-24T06:33:22;15.60;;;12.68;;
7336;SDS011;54510;42.016;23.098;2023-06-24T06:35:48;17.10;;;12.55;;
7336;SDS011;54510;42.016;23.098;2023-06-24T06:38:13;18.95;;;12.55;;
7336;SDS011;54510;42.016;23.098;2023-06-24T06:40:39;15.63;;;12.13;;
7336;SDS011;54510;42.016;23.098;2023-06-24T06:43:05;18.23;;;12.93;;
7336;SDS011;54510;42.016;23.098;2023-06-24T06:45:30;17.35;;;13.40;;
7336;SDS011;54510;42.016;23.098;2023-06-24T06:47:56;19.75;;;11.90;;
7336;SDS011;54510;42.016;23.098;2023-06-24T06:50:21;18.17;;;13.50;;
7336;SDS011;54510;42.016;23.098;2023-06-24T06:52:46;14.85;;;12.32;;
7336;SDS011;54510;42.016;23.098;2023-06-24T06:55:12;15.32;;;11.52;;
7336;SDS011;54510;42.016;23.098;2023-06-24T06:57:37;13.30;;;11.32;;
7336;SDS011;54510;42.016;23.098;2023-06-24T07:00:03;18.35;;;13.77;;
7336;SDS011;54510;42.016;23.098;2023-06-24T07:02:29;16.17;;;12.43;;
7336;SDS011;54510;42.016;23.098;2023-06-24T07:04:54;15.43;;;12.60;;
7336;SDS011;54510;42.016;23.098;2023-06-24T07:07:20;18.75;;;12.27;;
7336;SDS011;54510;42.016;23.098;2023-06-24T07:09:45;14.10;;;11.32;;
7336;SDS011;54510;42.016;23.098;2023-06-24T07:12:11;15.77;;;11.52;;
7336;SDS011;54510;42.016;23.098;2023-06-24T07:14:38;12.70;;;10.00;;
7336;SDS011;54510;42.016;23.098;2023-06-24T07:17:04;16.50;;;11.75;;
7336;SDS011;54510;42.016;23.098;2023-06-24T07:19:29;17.15;;;14.07;;
7336;SDS011;54510;42.016;23.098;2023-06-24T07:21:55;14.45;;;11.60;;
7336;SDS011;54510;42.016;23.098;2023-06-24T07:24:20;14.73;;;11.10;;
7336;SDS011;54510;42.016;23.098;2023-06-24T07:26:45;17.38;;;12.52;;
7336;SDS011;54510;42.016;23.098;2023-06-24T07:29:11;16.00;;;11.38;;
7336;SDS011;54510;42.016;23.098;2023-06-24T07:31:36;13.95;;;11.05;;
7336;SDS011;54510;42.016;23.098;2023-06-24T07:34:02;15.82;;;12.05;;
7336;SDS011;54510;42.016;23.098;2023-06-24T07:36:28;15.80;;;11.50;;
7336;SDS011;54510;42.016;23.098;2023-06-24T07:38:53;16.08;;;12.40;;
7336;SDS011;54510;42.016;23.098;2023-06-24T07:41:19;16.60;;;11.88;;
7336;SDS011;54510;42.016;23.098;2023-06-24T07:43:44;12.57;;;11.00;;
7336;SDS011;54510;42.016;23.098;2023-06-24T07:46:09;20.13;;;16.70;;
7336;SDS011;54510;42.016;23.098;2023-06-24T07:48:35;23.02;;;18.52;;
7336;SDS011;54510;42.016;23.098;2023-06-24T07:51:00;13.00;;;10.85;;
7336;SDS011;54510;42.016;23.098;2023-06-24T07:53:26;21.38;;;15.55;;
7336;SDS011;54510;42.016;23.098;2023-06-24T07:55:51;19.48;;;12.85;;
7336;SDS011;54510;42.016;23.098;2023-06-24T07:58:17;14.77;;;10.85;;
7336;SDS011;54510;42.016;23.098;2023-06-24T08:00:44;11.93;;;10.63;;
7336;SDS011;54510;42.016;23.098;2023-06-24T08:03:10;13.65;;;11.60;;
7336;SDS011;54510;42.016;23.098;2023-06-24T08:05:35;10.82;;;9.73;;
7336;SDS011;54510;42.016;23.098;2023-06-24T08:08:01;25.88;;;20.65;;
7336;SDS011;54510;42.016;23.098;2023-06-24T08:10:26;15.93;;;14.25;;
7336;SDS011;54510;42.016;23.098;2023-06-24T08:12:51;16.23;;;13.77;;
7336;SDS011;54510;42.016;23.098;2023-06-24T08:15:17;13.73;;;11.23;;
7336;SDS011;54510;42.016;23.098;2023-06-24T08:17:42;11.90;;;10.23;;
7336;SDS011;54510;42.016;23.098;2023-06-24T08:20:08;12.75;;;10.98;;
7336;SDS011;54510;42.016;23.098;2023-06-24T08:22:34;14.50;;;12.90;;
7336;SDS011;54510;42.016;23.098;2023-06-24T08:24:59;14.85;;;11.10;;
7336;SDS011;54510;42.016;23.098;2023-06-24T08:27:24;20.23;;;12.65;;
7336;SDS011;54510;42.016;23.098;2023-06-24T08:29:50;15.10;;;11.38;;
7336;SDS011;54510;42.016;23.098;2023-06-24T08:32:15;13.13;;;10.73;;
7336;SDS011;54510;42.016;23.098;2023-06-24T08:34:41;17.33;;;11.95;;
7336;SDS011;54510;42.016;23.098;2023-06-24T08:37:06;13.02;;;11.63;;
7336;SDS011;54510;42.016;23.098;2023-06-24T08:39:31;18.35;;;11.48;;
7336;SDS011;54510;42.016;23.098;2023-06-24T08:41:57;16.38;;;11.90;;
7336;SDS011;54510;42.016;23.098;2023-06-24T08:44:22;15.80;;;11.50;;
7336;SDS011;54510;42.016;23.098;2023-06-24T08:46:48;12.55;;;11.23;;
7336;SDS011;54510;42.016;23.098;2023-06-24T08:51:51;15.90;;;12.07;;
7336;SDS011;54510;42.016;23.098;2023-06-24T08:54:23;12.25;;;10.48;;
7336;SDS011;54510;42.016;23.098;2023-06-24T08:56:49;17.60;;;12.27;;
7336;SDS011;54510;42.016;23.098;2023-06-24T08:59:15;16.17;;;11.32;;
7336;SDS011;54510;42.016;23.098;2023-06-24T09:01:44;26.02;;;13.77;;
7336;SDS011;54510;42.016;23.098;2023-06-24T09:04:11;14.30;;;11.93;;
7336;SDS011;54510;42.016;23.098;2023-06-24T09:06:36;16.80;;;11.23;;
7336;SDS011;54510;42.016;23.098;2023-06-24T09:09:02;13.63;;;9.20;;
7336;SDS011;54510;42.016;23.098;2023-06-24T09:11:27;16.60;;;9.88;;
7336;SDS011;54510;42.016;23.098;2023-06-24T09:14:00;9.90;;;7.97;;
7336;SDS011;54510;42.016;23.098;2023-06-24T09:16:25;11.90;;;10.27;;
7336;SDS011;54510;42.016;23.098;2023-06-24T09:18:52;13.75;;;9.23;;
7336;SDS011;54510;42.016;23.098;2023-06-24T09:21:25;11.85;;;10.18;;
7336;SDS011;54510;42.016;23.098;2023-06-24T09:23:52;11.25;;;9.52;;
7336;SDS011;54510;42.016;23.098;2023-06-24T09:26:25;17.52;;;12.15;;
7336;SDS011;54510;42.016;23.098;2023-06-24T09:28:51;12.43;;;9.57;;
7336;SDS011;54510;42.016;23.098;2023-06-24T09:31:17;11.27;;;9.68;;
7336;SDS011;54510;42.016;23.098;2023-06-24T09:33:43;10.02;;;8.82;;
7336;SDS011;54510;42.016;23.098;2023-06-24T09:36:13;10.05;;;9.05;;
7336;SDS011;54510;42.016;23.098;2023-06-24T09:38:40;11.40;;;8.70;;
7336;SDS011;54510;42.016;23.098;2023-06-24T09:41:08;13.90;;;9.35;;
7336;SDS011;54510;42.016;23.098;2023-06-24T09:43:34;12.88;;;8.57;;
7336;SDS011;54510;42.016;23.098;2023-06-24T09:46:01;10.00;;;8.88;;
7336;SDS011;54510;42.016;23.098;2023-06-24T09:48:27;11.55;;;7.78;;
7336;SDS011;54510;42.016;23.098;2023-06-24T09:50:54;12.52;;;9.15;;
7336;SDS011;54510;42.016;23.098;2023-06-24T09:53:22;12.68;;;8.93;;
7336;SDS011;54510;42.016;23.098;2023-06-24T09:55:48;15.35;;;8.25;;
7336;SDS011;54510;42.016;23.098;2023-06-24T09:58:16;12.50;;;8.60;;
7336;SDS011;54510;42.016;23.098;2023-06-24T10:00:43;10.35;;;8.27;;
7336;SDS011;54510;42.016;23.098;2023-06-24T10:03:09;11.88;;;8.68;;
7336;SDS011;54510;42.016;23.098;2023-06-24T10:05:35;12.90;;;8.45;;
7336;SDS011;54510;42.016;23.098;2023-06-24T10:08:01;16.02;;;8.35;;
7336;SDS011;54510;42.016;23.098;2023-06-24T10:10:30;12.88;;;8.55;;
7336;SDS011;54510;42.016;23.098;2023-06-24T10:12:56;14.65;;;8.93;;
7336;SDS011;54510;42.016;23.098;2023-06-24T10:15:22;10.35;;;9.18;;
7336;SDS011;54510;42.016;23.098;2023-06-24T10:17:48;11.55;;;10.10;;
7336;SDS011;54510;42.016;23.098;2023-06-24T10:20:23;13.10;;;8.90;;
7336;SDS011;54510;42.016;23.098;2023-06-24T10:22:50;9.48;;;7.82;;
7336;SDS011;54510;42.016;23.098;2023-06-24T10:25:16;12.57;;;8.73;;
7336;SDS011;54510;42.016;23.098;2023-06-24T10:27:43;12.00;;;10.02;;
7336;SDS011;54510;42.016;23.098;2023-06-24T10:30:08;12.18;;;9.32;;
7336;SDS011;54510;42.016;23.098;2023-06-24T10:32:43;13.75;;;9.55;;
7336;SDS011;54510;42.016;23.098;2023-06-24T10:35:20;13.23;;;9.57;;
7336;SDS011;54510;42.016;23.098;2023-06-24T10:37:58;12.05;;;9.95;;
7336;SDS011;54510;42.016;23.098;2023-06-24T10:40:34;13.50;;;8.27;;
7336;SDS011;54510;42.016;23.098;2023-06-24T10:45:50;13.38;;;9.68;;
7336;SDS011;54510;42.016;23.098;2023-06-24T10:48:16;15.05;;;9.00;;
7336;SDS011;54510;42.016;23.098;2023-06-24T10:50:44;13.05;;;9.02;;
7336;SDS011;54510;42.016;23.098;2023-06-24T10:53:10;13.90;;;11.48;;
7336;SDS011;54510;42.016;23.098;2023-06-24T10:55:37;10.65;;;9.43;;
7336;SDS011;54510;42.016;23.098;2023-06-24T10:58:08;12.13;;;10.55;;
7336;SDS011;54510;42.016;23.098;2023-06-24T11:00:35;13.60;;;9.90;;
7336;SDS011;54510;42.016;23.098;2023-06-24T11:03:10;12.48;;;8.43;;
7336;SDS011;54510;42.016;23.098;2023-06-24T11:05:38;11.25;;;8.18;;
7336;SDS011;54510;42.016;23.098;2023-06-24T11:08:05;9.60;;;8.60;;
7336;SDS011;54510;42.016;23.098;2023-06-24T11:10:31;11.60;;;8.25;;
7336;SDS011;54510;42.016;23.098;2023-06-24T11:12:56;9.60;;;8.32;;
7336;SDS011;54510;42.016;23.098;2023-06-24T11:15:24;11.40;;;7.20;;
7336;SDS011;54510;42.016;23.098;2023-06-24T11:17:50;14.45;;;8.63;;
7336;SDS011;54510;42.016;23.098;2023-06-24T11:20:16;10.40;;;7.45;;
7336;SDS011;54510;42.016;23.098;2023-06-24T11:22:42;10.30;;;7.25;;
7336;SDS011;54510;42.016;23.098;2023-06-24T11:25:18;12.27;;;6.88;;
7336;SDS011;54510;42.016;23.098;2023-06-24T11:27:45;8.90;;;6.95;;
7336;SDS011;54510;42.016;23.098;2023-06-24T11:30:11;10.32;;;9.15;;
7336;SDS011;54510;42.016;23.098;2023-06-24T11:32:37;11.05;;;8.50;;
7336;SDS011;54510;42.016;23.098;2023-06-24T11:35:04;12.88;;;8.80;;
7336;SDS011;54510;42.016;23.098;2023-06-24T11:37:31;14.93;;;8.88;;
7336;SDS011;54510;42.016;23.098;2023-06-24T11:40:00;9.90;;;8.90;;
7336;SDS011;54510;42.016;23.098;2023-06-24T11:42:30;12.05;;;10.85;;
7336;SDS011;54510;42.016;23.098;2023-06-24T11:45:04;10.45;;;8.80;;
7336;SDS011;54510;42.016;23.098;2023-06-24T11:47:32;14.43;;;9.13;;
7336;SDS011;54510;42.016;23.098;2023-06-24T11:49:58;12.25;;;11.02;;
7336;SDS011;54510;42.016;23.098;2023-06-24T11:52:58;12.52;;;10.00;;
7336;SDS011;54510;42.016;23.098;2023-06-24T11:55:23;15.65;;;8.65;;
7336;SDS011;54510;42.016;23.098;2023-06-24T11:57:56;8.98;;;7.22;;
7336;SDS011;54510;42.016;23.098;2023-06-24T12:00:36;9.77;;;8.77;;
7336;SDS011;54510;42.016;23.098;2023-06-24T12:03:06;11.10;;;7.88;;
7336;SDS011;54510;42.016;23.098;2023-06-24T12:05:33;11.80;;;8.23;;
7336;SDS011;54510;42.016;23.098;2023-06-24T12:08:02;10.30;;;8.40;;
7336;SDS011;54510;42.016;23.098;2023-06-24T12:10:28;10.93;;;8.50;;
7336;SDS011;54510;42.016;23.098;2023-06-24T12:12:55;9.40;;;8.32;;
7336;SDS011;54510;42.016;23.098;2023-06-24T12:15:22;11.63;;;9.18;;
7336;SDS011;54510;42.016;23.098;2023-06-24T12:17:47;11.60;;;8.27;;
7336;SDS011;54510;42.016;23.098;2023-06-24T12:20:13;13.63;;;9.43;;
7336;SDS011;54510;42.016;23.098;2023-06-24T12:22:40;10.50;;;8.55;;
7336;SDS011;54510;42.016;23.098;2023-06-24T12:25:06;12.70;;;9.07;;
7336;SDS011;54510;42.016;23.098;2023-06-24T12:27:32;14.48;;;9.65;;
7336;SDS011;54510;42.016;23.098;2023-06-24T12:29:58;12.98;;;8.90;;
7336;SDS011;54510;42.016;23.098;2023-06-24T12:32:24;15.13;;;8.60;;
7336;SDS011;54510;42.016;23.098;2023-06-24T12:34:49;11.02;;;9.23;;
7336;SDS011;54510;42.016;23.098;2023-06-24T12:37:15;10.65;;;8.88;;
7336;SDS011;54510;42.016;23.098;2023-06-24T12:39:40;11.95;;;8.48;;
7336;SDS011;54510;42.016;23.098;2023-06-24T12:42:05;13.77;;;8.80;;
7336;SDS011;54510;42.016;23.098;2023-06-24T12:44:31;17.60;;;9.82;;
7336;SDS011;54510;42.016;23.098;2023-06-24T12:46:57;16.83;;;11.30;;
7336;SDS011;54510;42.016;23.098;2023-06-24T12:49:22;14.40;;;10.98;;
7336;SDS011;54510;42.016;23.098;2023-06-24T12:51:47;13.25;;;8.73;;
7336;SDS011;54510;42.016;23.098;2023-06-24T12:54:13;11.23;;;7.70;;
7336;SDS011;54510;42.016;23.098;2023-06-24T12:56:38;14.75;;;7.13;;
7336;SDS011;54510;42.016;23.098;2023-06-24T12:59:03;12.98;;;6.93;;
7336;SDS011;54510;42.016;23.098;2023-06-24T13:01:32;17.00;;;6.53;;
7336;SDS011;54510;42.016;23.098;2023-06-24T13:03:57;14.00;;;7.20;;
7336;SDS011;54510;42.016;23.098;2023-06-24T13:06:23;13.93;;;5.72;;
7336;SDS011;54510;42.016;23.098;2023-06-24T13:08:49;16.77;;;7.47;;
7336;SDS011;54510;42.016;23.098;2023-06-24T13:11:15;18.75;;;6.85;;
7336;SDS011;54510;42.016;23.098;2023-06-24T13:13:40;22.35;;;8.95;;
7336;SDS011;54510;42.016;23.098;2023-06-24T13:16:05;22.98;;;8.40;;
7336;SDS011;54510;42.016;23.098;2023-06-24T13:18:31;22.10;;;9.13;;
7336;SDS011;54510;42.016;23.098;2023-06-24T13:20:56;28.20;;;12.40;;
7336;SDS011;54510;42.016;23.098;2023-06-24T13:23:22;30.92;;;13.00;;
7336;SDS011;54510;42.016;23.098;2023-06-24T13:25:47;29.52;;;13.68;;
7336;SDS011;54510;42.016;23.098;2023-06-24T13:28:12;34.47;;;13.13;;
7336;SDS011;54510;42.016;23.098;2023-06-24T13:30:38;23.55;;;13.63;;
7336;SDS011;54510;42.016;23.098;2023-06-24T13:33:03;35.42;;;13.38;;
7336;SDS011;54510;42.016;23.098;2023-06-24T13:35:29;26.83;;;13.95;;
7336;SDS011;54510;42.016;23.098;2023-06-24T13:37:54;30.85;;;13.30;;
7336;SDS011;54510;42.016;23.098;2023-06-24T13:40:19;25.63;;;13.27;;
7336;SDS011;54510;42.016;23.098;2023-06-24T13:42:45;23.98;;;12.02;;
7336;SDS011;54510;42.016;23.098;2023-06-24T13:45:11;23.88;;;12.77;;
7336;SDS011;54510;42.016;23.098;2023-06-24T13:47:36;31.60;;;11.98;;
7336;SDS011;54510;42.016;23.098;2023-06-24T13:50:02;20.70;;;10.98;;
7336;SDS011;54510;42.016;23.098;2023-06-24T13:52:28;22.20;;;11.15;;
7336;SDS011;54510;42.016;23.098;2023-06-24T13:54:54;23.08;;;11.10;;
7336;SDS011;54510;42.016;23.098;2023-06-24T13:57:19;19.25;;;10.07;;
7336;SDS011;54510;42.016;23.098;2023-06-24T13:59:45;17.00;;;8.77;;
7336;SDS011;54510;42.016;23.098;2023-06-24T14:02:10;16.35;;;9.23;;
7336;SDS011;54510;42.016;23.098;2023-06-24T14:04:36;17.02;;;8.48;;
7336;SDS011;54510;42.016;23.098;2023-06-24T14:07:04;16.98;;;9.43;;
7336;SDS011;54510;42.016;23.098;2023-06-24T14:09:30;15.80;;;9.45;;
7336;SDS011;54510;42.016;23.098;2023-06-24T14:11:56;18.25;;;9.68;;
7336;SDS011;54510;42.016;23.098;2023-06-24T14:14:21;13.68;;;9.35;;
7336;SDS011;54510;42.016;23.098;2023-06-24T14:16:47;23.45;;;11.80;;
7336;SDS011;54510;42.016;23.098;2023-06-24T14:19:12;18.88;;;10.80;;
7336;SDS011;54510;42.016;23.098;2023-06-24T14:21:38;17.80;;;10.70;;
7336;SDS011;54510;42.016;23.098;2023-06-24T14:24:04;19.50;;;10.90;;
7336;SDS011;54510;42.016;23.098;2023-06-24T14:26:31;20.35;;;11.70;;
7336;SDS011;54510;42.016;23.098;2023-06-24T14:28:57;17.55;;;10.18;;
7336;SDS011;54510;42.016;23.098;2023-06-24T14:31:22;17.02;;;11.00;;
7336;SDS011;54510;42.016;23.098;2023-06-24T14:33:48;20.35;;;11.25;;
7336;SDS011;54510;42.016;23.098;2023-06-24T14:36:13;20.38;;;11.60;;